sensor_id;sensor_type;location;lat;lon;timestamp;pressure;altitude;pressure_sealevel;temperature;humidity
60055;BME280;45930;53.514;55.904;2023-07-30T00:00:50;48452.63;;;-149.77;89.98
60055;BME280;45930;53.514;55.904;2023-07-30T00:01:51;48458.56;;;-149.77;91.05
60055;BME280;45930;53.514;55.904;2023-07-30T00:02:52;48496.22;;;-149.77;90.21
60055;BME280;45930;53.514;55.904;2023-07-30T00:03:52;48498.19;;;-149.77;90.40
60055;BME280;45930;53.514;55.904;2023-07-30T00:04:53;48468.47;;;-149.77;91.04
60055;BME280;45930;53.514;55.904;2023-07-30T00:05:55;48470.47;;;-149.77;90.78
60055;BME280;45930;53.514;55.904;2023-07-30T00:06:56;48474.41;;;-149.77;90.24
60055;BME280;45930;53.514;55.904;2023-07-30T00:07:56;48482.34;;;-149.77;90.00
60055;BME280;45930;53.514;55.904;2023-07-30T00:08:57;48541.75;;;-149.77;89.38
60055;BME280;45930;53.514;55.904;2023-07-30T00:09:58;48494.22;;;-149.77;89.50
60055;BME280;45930;53.514;55.904;2023-07-30T00:10:59;48502.16;;;-149.77;89.19
60055;BME280;45930;53.514;55.904;2023-07-30T00:12:00;48506.09;;;-149.77;88.96
60055;BME280;45930;53.514;55.904;2023-07-30T00:13:02;48531.84;;;-149.77;88.76
60055;BME280;45930;53.514;55.904;2023-07-30T00:14:03;48555.63;;;-149.77;88.29
60055;BME280;45930;53.514;55.904;2023-07-30T00:15:05;48583.34;;;-149.77;87.76
60055;BME280;45930;53.514;55.904;2023-07-30T00:16:06;48559.59;;;-149.77;86.86
60055;BME280;45930;53.514;55.904;2023-07-30T00:17:06;48569.47;;;-149.77;86.81
60055;BME280;45930;53.514;55.904;2023-07-30T00:18:07;48613.06;;;-149.77;86.04
60055;BME280;45930;53.514;55.904;2023-07-30T00:19:08;48597.22;;;-149.77;86.02
60055;BME280;45930;53.514;55.904;2023-07-30T00:20:09;48619.00;;;-149.77;85.45
60055;BME280;45930;53.514;55.904;2023-07-30T00:21:10;48609.09;;;-149.77;84.85
60055;BME280;45930;53.514;55.904;2023-07-30T00:22:11;48666.53;;;-149.77;84.12
60055;BME280;45930;53.514;55.904;2023-07-30T00:23:12;48666.53;;;-149.77;83.18
60055;BME280;45930;53.514;55.904;2023-07-30T00:24:13;48668.50;;;-149.77;82.66
60055;BME280;45930;53.514;55.904;2023-07-30T00:25:14;48684.34;;;-149.77;81.88
60055;BME280;45930;53.514;55.904;2023-07-30T00:26:15;48698.22;;;-149.77;81.87
60055;BME280;45930;53.514;55.904;2023-07-30T00:27:16;48708.13;;;-149.77;81.83
60055;BME280;45930;53.514;55.904;2023-07-30T00:28:17;48690.28;;;-149.77;81.78
60055;BME280;45930;53.514;55.904;2023-07-30T00:29:18;48696.22;;;-149.77;82.02
60055;BME280;45930;53.514;55.904;2023-07-30T00:30:18;48690.28;;;-149.77;82.07
60055;BME280;45930;53.514;55.904;2023-07-30T00:31:19;48680.38;;;-149.77;82.00
60055;BME280;45930;53.514;55.904;2023-07-30T00:32:20;48680.38;;;-149.77;82.02
60055;BME280;45930;53.514;55.904;2023-07-30T00:33:21;48700.19;;;-149.77;81.70
60055;BME280;45930;53.514;55.904;2023-07-30T00:34:22;48686.34;;;-149.77;81.86
60055;BME280;45930;53.514;55.904;2023-07-30T00:35:23;48684.34;;;-149.77;81.56
60055;BME280;45930;53.514;55.904;2023-07-30T00:36:23;48723.97;;;-149.77;81.30
60055;BME280;45930;53.514;55.904;2023-07-30T00:37:24;48739.81;;;-149.77;80.65
60055;BME280;45930;53.514;55.904;2023-07-30T00:38:25;48725.94;;;-149.77;80.32
60055;BME280;45930;53.514;55.904;2023-07-30T00:39:26;48723.97;;;-149.77;80.86
60055;BME280;45930;53.514;55.904;2023-07-30T00:40:27;48716.03;;;-149.77;81.22
60055;BME280;45930;53.514;55.904;2023-07-30T00:41:27;48696.22;;;-149.77;81.47
60055;BME280;45930;53.514;55.904;2023-07-30T00:42:28;48684.34;;;-149.77;81.76
60055;BME280;45930;53.514;55.904;2023-07-30T00:43:30;48666.53;;;-149.77;82.79
60055;BME280;45930;53.514;55.904;2023-07-30T00:44:30;48668.50;;;-149.77;82.71
60055;BME280;45930;53.514;55.904;2023-07-30T00:45:31;48648.69;;;-149.77;82.94
60055;BME280;45930;53.514;55.904;2023-07-30T00:46:32;48650.69;;;-149.77;83.73
60055;BME280;45930;53.514;55.904;2023-07-30T00:47:33;48589.28;;;-149.77;84.67
60055;BME280;45930;53.514;55.904;2023-07-30T00:48:34;48607.13;;;-149.77;84.52
60055;BME280;45930;53.514;55.904;2023-07-30T00:49:35;48607.13;;;-149.77;84.63
60055;BME280;45930;53.514;55.904;2023-07-30T00:50:36;48603.16;;;-149.77;85.28
60055;BME280;45930;53.514;55.904;2023-07-30T00:51:40;48587.31;;;-149.77;85.83
60055;BME280;45930;53.514;55.904;2023-07-30T00:52:42;48585.31;;;-149.77;86.63
60055;BME280;45930;53.514;55.904;2023-07-30T00:53:43;48551.66;;;-149.77;87.40
60055;BME280;45930;53.514;55.904;2023-07-30T00:54:44;48559.59;;;-149.77;87.15
60055;BME280;45930;53.514;55.904;2023-07-30T00:55:46;48533.84;;;-149.77;87.19
60055;BME280;45930;53.514;55.904;2023-07-30T00:56:51;48551.66;;;-149.77;87.79
60055;BME280;45930;53.514;55.904;2023-07-30T00:57:52;48533.84;;;-149.77;87.93
60055;BME280;45930;53.514;55.904;2023-07-30T00:58:53;48533.84;;;-149.77;88.59
60055;BME280;45930;53.514;55.904;2023-07-30T00:59:56;48486.31;;;-149.77;89.93
60055;BME280;45930;53.514;55.904;2023-07-30T01:00:57;48504.13;;;-149.77;90.96
60055;BME280;45930;53.514;55.904;2023-07-30T01:01:59;48504.13;;;-149.77;90.94
60055;BME280;45930;53.514;55.904;2023-07-30T01:03:00;48521.94;;;-149.77;90.87
60055;BME280;45930;53.514;55.904;2023-07-30T01:04:01;48498.19;;;-149.77;90.55
60055;BME280;45930;53.514;55.904;2023-07-30T01:05:02;48502.16;;;-149.77;90.74
60055;BME280;45930;53.514;55.904;2023-07-30T01:06:06;48521.94;;;-149.77;90.56
60055;BME280;45930;53.514;55.904;2023-07-30T01:07:07;48527.91;;;-149.77;89.56
60055;BME280;45930;53.514;55.904;2023-07-30T01:08:08;48525.91;;;-149.77;89.31
60055;BME280;45930;53.514;55.904;2023-07-30T01:09:09;48561.56;;;-149.77;89.33
60055;BME280;45930;53.514;55.904;2023-07-30T01:10:11;48521.94;;;-149.77;89.13
60055;BME280;45930;53.514;55.904;2023-07-30T01:11:12;48510.06;;;-149.77;89.26
60055;BME280;45930;53.514;55.904;2023-07-30T01:12:15;48521.94;;;-149.77;88.62
60055;BME280;45930;53.514;55.904;2023-07-30T01:13:16;48541.75;;;-149.77;87.85
60055;BME280;45930;53.514;55.904;2023-07-30T01:14:17;48585.31;;;-149.77;87.28
60055;BME280;45930;53.514;55.904;2023-07-30T01:15:19;48591.28;;;-149.77;86.85
60055;BME280;45930;53.514;55.904;2023-07-30T01:16:20;48591.28;;;-149.77;85.85
60055;BME280;45930;53.514;55.904;2023-07-30T01:17:24;48609.09;;;-149.77;84.71
60055;BME280;45930;53.514;55.904;2023-07-30T01:18:25;48652.66;;;-149.77;83.57
60055;BME280;45930;53.514;55.904;2023-07-30T01:19:26;48658.59;;;-149.77;82.83
60055;BME280;45930;53.514;55.904;2023-07-30T01:20:33;48720.00;;;-149.77;82.10
60055;BME280;45930;53.514;55.904;2023-07-30T01:21:34;48642.75;;;-149.77;84.12
60055;BME280;45930;53.514;55.904;2023-07-30T01:22:36;48626.91;;;-149.77;85.16
60055;BME280;45930;53.514;55.904;2023-07-30T01:23:36;48581.38;;;-149.77;86.14
60055;BME280;45930;53.514;55.904;2023-07-30T01:24:37;48545.72;;;-149.77;87.69
60055;BME280;45930;53.514;55.904;2023-07-30T01:25:39;48539.78;;;-149.77;88.48
60055;BME280;45930;53.514;55.904;2023-07-30T01:26:44;48589.28;;;-149.77;88.25
60055;BME280;45930;53.514;55.904;2023-07-30T01:27:51;48549.69;;;-149.77;88.61
60055;BME280;45930;53.514;55.904;2023-07-30T01:28:56;48545.72;;;-149.77;88.01
60055;BME280;45930;53.514;55.904;2023-07-30T01:30:17;48555.63;;;-149.77;87.77
60055;BME280;45930;53.514;55.904;2023-07-30T01:31:25;48571.47;;;-149.77;87.52
60055;BME280;45930;53.514;55.904;2023-07-30T01:32:28;48597.22;;;-149.77;87.27
60055;BME280;45930;53.514;55.904;2023-07-30T01:33:30;48589.28;;;-149.77;86.45
60055;BME280;45930;53.514;55.904;2023-07-30T01:34:34;48620.97;;;-149.77;85.33
60055;BME280;45930;53.514;55.904;2023-07-30T01:35:37;48660.59;;;-149.77;84.37
60055;BME280;45930;53.514;55.904;2023-07-30T01:36:38;48640.78;;;-149.77;84.48
60055;BME280;45930;53.514;55.904;2023-07-30T01:37:41;48648.69;;;-149.77;84.49
60055;BME280;45930;53.514;55.904;2023-07-30T01:38:43;48640.78;;;-149.77;85.11
60055;BME280;45930;53.514;55.904;2023-07-30T01:39:45;48613.06;;;-149.77;85.07
60055;BME280;45930;53.514;55.904;2023-07-30T01:40:48;48646.72;;;-149.77;84.82
60055;BME280;45930;53.514;55.904;2023-07-30T01:41:49;48617.00;;;-149.77;84.67
60055;BME280;45930;53.514;55.904;2023-07-30T01:42:50;48666.53;;;-149.77;83.38
60055;BME280;45930;53.514;55.904;2023-07-30T01:43:51;48718.03;;;-149.77;82.26
60055;BME280;45930;53.514;55.904;2023-07-30T01:44:52;48735.84;;;-149.77;81.23
60055;BME280;45930;53.514;55.904;2023-07-30T01:45:53;48727.91;;;-149.77;81.08
60055;BME280;45930;53.514;55.904;2023-07-30T01:46:53;48771.50;;;-149.77;80.31
60055;BME280;45930;53.514;55.904;2023-07-30T01:47:54;48771.50;;;-149.77;79.48
60055;BME280;45930;53.514;55.904;2023-07-30T01:48:55;48817.03;;;-149.77;77.90
60055;BME280;45930;53.514;55.904;2023-07-30T01:49:56;48807.16;;;-149.77;78.23
60055;BME280;45930;53.514;55.904;2023-07-30T01:50:56;48803.19;;;-149.77;78.07
60055;BME280;45930;53.514;55.904;2023-07-30T01:51:57;48809.13;;;-149.77;77.97
60055;BME280;45930;53.514;55.904;2023-07-30T01:52:58;48850.72;;;-149.77;77.84
60055;BME280;45930;53.514;55.904;2023-07-30T01:53:59;48842.78;;;-149.77;77.77
60055;BME280;45930;53.514;55.904;2023-07-30T01:55:00;48836.84;;;-149.77;77.76
60055;BME280;45930;53.514;55.904;2023-07-30T01:56:01;48838.84;;;-149.77;78.19
60055;BME280;45930;53.514;55.904;2023-07-30T01:57:02;48830.91;;;-149.77;77.48
60055;BME280;45930;53.514;55.904;2023-07-30T01:58:03;48910.13;;;-149.77;75.35
60055;BME280;45930;53.514;55.904;2023-07-30T01:59:04;48955.69;;;-149.77;74.25
60055;BME280;45930;53.514;55.904;2023-07-30T02:00:05;48961.63;;;-149.77;74.07
60055;BME280;45930;53.514;55.904;2023-07-30T02:01:06;48929.94;;;-149.77;75.08
60055;BME280;45930;53.514;55.904;2023-07-30T02:02:07;48890.31;;;-149.77;75.67
60055;BME280;45930;53.514;55.904;2023-07-30T02:03:08;48896.28;;;-149.77;75.31
60055;BME280;45930;53.514;55.904;2023-07-30T02:04:09;48937.88;;;-149.77;75.07
60055;BME280;45930;53.514;55.904;2023-07-30T02:05:10;48997.28;;;-149.77;73.03
60055;BME280;45930;53.514;55.904;2023-07-30T02:06:11;49001.25;;;-149.77;72.00
60055;BME280;45930;53.514;55.904;2023-07-30T02:07:12;49060.66;;;-149.77;71.19
60055;BME280;45930;53.514;55.904;2023-07-30T02:08:13;49110.19;;;-149.77;69.43
60055;BME280;45930;53.514;55.904;2023-07-30T02:09:16;49199.31;;;-149.77;64.69
60055;BME280;45930;53.514;55.904;2023-07-30T02:10:17;49242.91;;;-149.77;64.12
60055;BME280;45930;53.514;55.904;2023-07-30T02:11:18;49201.28;;;-149.77;64.91
60055;BME280;45930;53.514;55.904;2023-07-30T02:12:18;49238.94;;;-149.77;64.22
60055;BME280;45930;53.514;55.904;2023-07-30T02:13:19;49296.38;;;-149.77;62.62
60055;BME280;45930;53.514;55.904;2023-07-30T02:14:20;49326.09;;;-149.77;61.15
60055;BME280;45930;53.514;55.904;2023-07-30T02:15:21;49349.84;;;-149.77;60.42
60055;BME280;45930;53.514;55.904;2023-07-30T02:16:22;49337.97;;;-149.77;60.51
60055;BME280;45930;53.514;55.904;2023-07-30T02:17:22;49332.03;;;-149.77;61.29
60055;BME280;45930;53.514;55.904;2023-07-30T02:18:44;49288.44;;;-149.77;63.89
60055;BME280;45930;53.514;55.904;2023-07-30T02:19:45;49236.94;;;-149.77;65.50
60055;BME280;45930;53.514;55.904;2023-07-30T02:20:46;49268.63;;;-149.77;64.20
60055;BME280;45930;53.514;55.904;2023-07-30T02:21:47;49254.78;;;-149.77;64.25
60055;BME280;45930;53.514;55.904;2023-07-30T02:22:47;49290.44;;;-149.77;63.43
60055;BME280;45930;53.514;55.904;2023-07-30T02:23:48;49288.44;;;-149.77;63.42
60055;BME280;45930;53.514;55.904;2023-07-30T02:24:49;49341.94;;;-149.77;61.42
60055;BME280;45930;53.514;55.904;2023-07-30T02:25:50;49365.69;;;-149.77;58.82
60055;BME280;45930;53.514;55.904;2023-07-30T02:26:51;49383.53;;;-149.77;59.01
60055;BME280;45930;53.514;55.904;2023-07-30T02:27:52;49440.97;;;-149.77;56.12
60055;BME280;45930;53.514;55.904;2023-07-30T02:28:53;49460.78;;;-149.77;55.26
60055;BME280;45930;53.514;55.904;2023-07-30T02:29:54;49464.75;;;-149.77;54.98
60055;BME280;45930;53.514;55.904;2023-07-30T02:30:54;49478.63;;;-149.77;54.56
60055;BME280;45930;53.514;55.904;2023-07-30T02:31:55;49500.41;;;-149.77;53.93
60055;BME280;45930;53.514;55.904;2023-07-30T02:32:56;49520.22;;;-149.77;53.01
60055;BME280;45930;53.514;55.904;2023-07-30T02:33:57;49488.50;;;-149.77;53.54
60055;BME280;45930;53.514;55.904;2023-07-30T02:34:58;49514.28;;;-149.77;52.14
60055;BME280;45930;53.514;55.904;2023-07-30T02:35:58;49524.16;;;-149.77;51.23
60055;BME280;45930;53.514;55.904;2023-07-30T02:36:59;49512.28;;;-149.77;50.78
60055;BME280;45930;53.514;55.904;2023-07-30T02:38:00;49520.22;;;-149.77;50.78
60055;BME280;45930;53.514;55.904;2023-07-30T02:39:01;49526.16;;;-149.77;51.03
60055;BME280;45930;53.514;55.904;2023-07-30T02:40:02;49553.88;;;-149.77;51.09
60055;BME280;45930;53.514;55.904;2023-07-30T02:41:05;49551.91;;;-149.77;51.22
60055;BME280;45930;53.514;55.904;2023-07-30T02:42:06;49549.94;;;-149.77;51.23
60055;BME280;45930;53.514;55.904;2023-07-30T02:43:06;49532.09;;;-149.77;49.88
60055;BME280;45930;53.514;55.904;2023-07-30T02:44:07;49540.03;;;-149.77;49.01
60055;BME280;45930;53.514;55.904;2023-07-30T02:45:08;49571.72;;;-149.77;48.71
60055;BME280;45930;53.514;55.904;2023-07-30T02:46:09;49575.69;;;-149.77;47.56
60055;BME280;45930;53.514;55.904;2023-07-30T02:47:10;49571.72;;;-149.77;47.77
60055;BME280;45930;53.514;55.904;2023-07-30T02:48:11;49583.59;;;-149.77;47.38
60055;BME280;45930;53.514;55.904;2023-07-30T02:49:12;49597.47;;;-149.77;47.48
60055;BME280;45930;53.514;55.904;2023-07-30T02:50:13;49587.56;;;-149.77;46.58
60055;BME280;45930;53.514;55.904;2023-07-30T02:51:14;49599.44;;;-149.77;46.21
60055;BME280;45930;53.514;55.904;2023-07-30T02:52:15;49617.28;;;-149.77;46.19
60055;BME280;45930;53.514;55.904;2023-07-30T02:53:15;49603.41;;;-149.77;46.44
60055;BME280;45930;53.514;55.904;2023-07-30T02:54:16;49648.97;;;-149.77;46.58
60055;BME280;45930;53.514;55.904;2023-07-30T02:55:17;49611.34;;;-149.77;46.54
60055;BME280;45930;53.514;55.904;2023-07-30T02:56:19;49617.28;;;-149.77;46.49
60055;BME280;45930;53.514;55.904;2023-07-30T02:57:19;49625.19;;;-149.77;46.32
60055;BME280;45930;53.514;55.904;2023-07-30T02:58:20;49637.09;;;-149.77;45.88
60055;BME280;45930;53.514;55.904;2023-07-30T02:59:21;49633.13;;;-149.77;45.28
60055;BME280;45930;53.514;55.904;2023-07-30T03:00:22;49633.13;;;-149.77;45.87
60055;BME280;45930;53.514;55.904;2023-07-30T03:01:23;49617.28;;;-149.77;45.84
60055;BME280;45930;53.514;55.904;2023-07-30T03:02:23;49656.91;;;-149.77;45.74
60055;BME280;45930;53.514;55.904;2023-07-30T03:03:24;49660.84;;;-149.77;45.71
60055;BME280;45930;53.514;55.904;2023-07-30T03:04:25;49662.84;;;-149.77;45.49
60055;BME280;45930;53.514;55.904;2023-07-30T03:05:26;49647.00;;;-149.77;45.25
60055;BME280;45930;53.514;55.904;2023-07-30T03:06:28;49662.84;;;-149.77;43.32
60055;BME280;45930;53.514;55.904;2023-07-30T03:07:28;49637.09;;;-149.77;43.41
60055;BME280;45930;53.514;55.904;2023-07-30T03:08:29;49668.78;;;-149.77;43.15
60055;BME280;45930;53.514;55.904;2023-07-30T03:09:30;49672.75;;;-149.77;43.63
60055;BME280;45930;53.514;55.904;2023-07-30T03:10:31;49702.47;;;-149.77;43.49
60055;BME280;45930;53.514;55.904;2023-07-30T03:11:32;49696.53;;;-149.77;43.63
60055;BME280;45930;53.514;55.904;2023-07-30T03:12:32;49686.63;;;-149.77;43.82
60055;BME280;45930;53.514;55.904;2023-07-30T03:13:33;49726.22;;;-149.77;43.48
60055;BME280;45930;53.514;55.904;2023-07-30T03:14:34;49740.09;;;-149.77;43.28
60055;BME280;45930;53.514;55.904;2023-07-30T03:15:35;49734.16;;;-149.77;42.83
60055;BME280;45930;53.514;55.904;2023-07-30T03:16:35;49698.50;;;-149.77;42.51
60055;BME280;45930;53.514;55.904;2023-07-30T03:17:36;49708.41;;;-149.77;42.40
60055;BME280;45930;53.514;55.904;2023-07-30T03:18:37;49755.94;;;-149.77;42.02
60055;BME280;45930;53.514;55.904;2023-07-30T03:19:38;49746.03;;;-149.77;42.23
60055;BME280;45930;53.514;55.904;2023-07-30T03:20:38;49753.97;;;-149.77;41.96
60055;BME280;45930;53.514;55.904;2023-07-30T03:21:39;49734.16;;;-149.77;42.19
60055;BME280;45930;53.514;55.904;2023-07-30T03:22:40;49722.28;;;-149.77;41.44
60055;BME280;45930;53.514;55.904;2023-07-30T03:23:41;49734.16;;;-149.77;41.43
60055;BME280;45930;53.514;55.904;2023-07-30T03:24:46;49746.03;;;-149.77;41.60
60055;BME280;45930;53.514;55.904;2023-07-30T03:25:47;49759.91;;;-149.77;41.27
60055;BME280;45930;53.514;55.904;2023-07-30T03:26:48;49710.38;;;-149.77;41.28
60055;BME280;45930;53.514;55.904;2023-07-30T03:27:49;49740.09;;;-149.77;40.86
60055;BME280;45930;53.514;55.904;2023-07-30T03:28:50;49773.78;;;-149.77;41.07
60055;BME280;45930;53.514;55.904;2023-07-30T03:29:52;49769.81;;;-149.77;41.15
60055;BME280;45930;53.514;55.904;2023-07-30T03:30:53;49752.00;;;-149.77;41.29
60055;BME280;45930;53.514;55.904;2023-07-30T03:31:53;49755.94;;;-149.77;40.31
60055;BME280;45930;53.514;55.904;2023-07-30T03:32:54;49783.69;;;-149.77;40.41
60055;BME280;45930;53.514;55.904;2023-07-30T03:33:55;49765.84;;;-149.77;40.56
60055;BME280;45930;53.514;55.904;2023-07-30T03:34:56;49767.84;;;-149.77;40.72
60055;BME280;45930;53.514;55.904;2023-07-30T03:35:56;49777.75;;;-149.77;40.99
60055;BME280;45930;53.514;55.904;2023-07-30T03:36:57;49748.03;;;-149.77;41.32
60055;BME280;45930;53.514;55.904;2023-07-30T03:38:00;49726.22;;;-149.77;40.96
60055;BME280;45930;53.514;55.904;2023-07-30T03:39:01;49750.00;;;-149.77;41.12
60055;BME280;45930;53.514;55.904;2023-07-30T03:40:02;49740.09;;;-149.77;41.51
60055;BME280;45930;53.514;55.904;2023-07-30T03:41:06;49793.59;;;-149.77;41.40
60055;BME280;45930;53.514;55.904;2023-07-30T03:42:07;49761.88;;;-149.77;41.31
60055;BME280;45930;53.514;55.904;2023-07-30T03:43:08;49777.75;;;-149.77;41.09
60055;BME280;45930;53.514;55.904;2023-07-30T03:44:08;49773.78;;;-149.77;40.97
60055;BME280;45930;53.514;55.904;2023-07-30T03:45:09;49767.84;;;-149.77;41.09
60055;BME280;45930;53.514;55.904;2023-07-30T03:46:10;49757.94;;;-149.77;41.00
60055;BME280;45930;53.514;55.904;2023-07-30T03:47:11;49757.94;;;-149.77;40.79
60055;BME280;45930;53.514;55.904;2023-07-30T03:48:12;49791.59;;;-149.77;40.55
60055;BME280;45930;53.514;55.904;2023-07-30T03:49:13;49767.84;;;-149.77;40.44
60055;BME280;45930;53.514;55.904;2023-07-30T03:50:13;49771.78;;;-149.77;40.64
60055;BME280;45930;53.514;55.904;2023-07-30T03:51:14;49797.56;;;-149.77;40.47
60055;BME280;45930;53.514;55.904;2023-07-30T03:52:15;49789.63;;;-149.77;40.71
60055;BME280;45930;53.514;55.904;2023-07-30T03:53:18;49781.69;;;-149.77;40.07
60055;BME280;45930;53.514;55.904;2023-07-30T03:54:18;49783.69;;;-149.77;39.94
60055;BME280;45930;53.514;55.904;2023-07-30T03:55:19;49799.53;;;-149.77;39.86
60055;BME280;45930;53.514;55.904;2023-07-30T03:56:20;49813.41;;;-149.77;39.11
60055;BME280;45930;53.514;55.904;2023-07-30T03:57:21;49799.53;;;-149.77;39.18
60055;BME280;45930;53.514;55.904;2023-07-30T03:58:22;49795.56;;;-149.77;39.01
60055;BME280;45930;53.514;55.904;2023-07-30T03:59:22;49851.03;;;-149.77;38.83
60055;BME280;45930;53.514;55.904;2023-07-30T04:00:23;49797.56;;;-149.77;38.62
60055;BME280;45930;53.514;55.904;2023-07-30T04:01:24;49797.56;;;-149.77;38.36
60055;BME280;45930;53.514;55.904;2023-07-30T04:02:25;49799.53;;;-149.77;38.53
60055;BME280;45930;53.514;55.904;2023-07-30T04:03:26;49811.41;;;-149.77;38.09
60055;BME280;45930;53.514;55.904;2023-07-30T04:04:27;49876.78;;;-149.77;37.96
60055;BME280;45930;53.514;55.904;2023-07-30T04:05:29;49831.22;;;-149.77;37.79
60055;BME280;45930;53.514;55.904;2023-07-30T04:06:30;49864.91;;;-149.77;37.72
60055;BME280;45930;53.514;55.904;2023-07-30T04:07:30;49876.78;;;-149.77;37.79
60055;BME280;45930;53.514;55.904;2023-07-30T04:08:31;49912.44;;;-149.77;38.12
60055;BME280;45930;53.514;55.904;2023-07-30T04:09:32;49872.84;;;-149.77;37.39
60055;BME280;45930;53.514;55.904;2023-07-30T04:10:33;49894.63;;;-149.77;37.91
60055;BME280;45930;53.514;55.904;2023-07-30T04:11:34;49906.50;;;-149.77;37.94
60055;BME280;45930;53.514;55.904;2023-07-30T04:12:34;49920.38;;;-149.77;37.18
60055;BME280;45930;53.514;55.904;2023-07-30T04:13:35;49886.69;;;-149.77;36.98
60055;BME280;45930;53.514;55.904;2023-07-30T04:14:36;49896.59;;;-149.77;37.01
60055;BME280;45930;53.514;55.904;2023-07-30T04:15:37;49900.56;;;-149.77;36.73
60055;BME280;45930;53.514;55.904;2023-07-30T04:16:38;49884.72;;;-149.77;36.70
60055;BME280;45930;53.514;55.904;2023-07-30T04:17:38;49878.78;;;-149.77;36.90
60055;BME280;45930;53.514;55.904;2023-07-30T04:18:39;49932.25;;;-149.77;37.09
60055;BME280;45930;53.514;55.904;2023-07-30T04:19:40;49898.59;;;-149.77;36.86
60055;BME280;45930;53.514;55.904;2023-07-30T04:20:41;49858.97;;;-149.77;36.65
60055;BME280;45930;53.514;55.904;2023-07-30T04:21:41;49918.41;;;-149.77;36.70
60055;BME280;45930;53.514;55.904;2023-07-30T04:22:42;49894.63;;;-149.77;37.03
60055;BME280;45930;53.514;55.904;2023-07-30T04:23:43;49870.84;;;-149.77;36.96
60055;BME280;45930;53.514;55.904;2023-07-30T04:24:44;49892.63;;;-149.77;36.78
60055;BME280;45930;53.514;55.904;2023-07-30T04:25:45;49900.56;;;-149.77;37.41
60055;BME280;45930;53.514;55.904;2023-07-30T04:26:45;49876.78;;;-149.77;36.77
60055;BME280;45930;53.514;55.904;2023-07-30T04:27:46;49934.25;;;-149.77;36.54
60055;BME280;45930;53.514;55.904;2023-07-30T04:28:47;49860.94;;;-149.77;36.67
60055;BME280;45930;53.514;55.904;2023-07-30T04:29:48;49868.88;;;-149.77;36.68
60055;BME280;45930;53.514;55.904;2023-07-30T04:30:48;49856.97;;;-149.77;36.87
60055;BME280;45930;53.514;55.904;2023-07-30T04:31:49;49890.66;;;-149.77;37.08
60055;BME280;45930;53.514;55.904;2023-07-30T04:32:50;49860.94;;;-149.77;37.08
60055;BME280;45930;53.514;55.904;2023-07-30T04:33:51;49847.06;;;-149.77;37.05
60055;BME280;45930;53.514;55.904;2023-07-30T04:34:52;49841.13;;;-149.77;37.01
60055;BME280;45930;53.514;55.904;2023-07-30T04:35:53;49853.03;;;-149.77;37.27
60055;BME280;45930;53.514;55.904;2023-07-30T04:36:53;49886.69;;;-149.77;37.27
60055;BME280;45930;53.514;55.904;2023-07-30T04:37:54;49876.78;;;-149.77;36.97
60055;BME280;45930;53.514;55.904;2023-07-30T04:38:55;49888.69;;;-149.77;37.46
60055;BME280;45930;53.514;55.904;2023-07-30T04:39:56;49856.97;;;-149.77;37.55
60055;BME280;45930;53.514;55.904;2023-07-30T04:40:58;49878.78;;;-149.77;37.23
60055;BME280;45930;53.514;55.904;2023-07-30T04:41:59;49890.66;;;-149.77;37.23
60055;BME280;45930;53.514;55.904;2023-07-30T04:42:59;49823.31;;;-149.77;37.58
60055;BME280;45930;53.514;55.904;2023-07-30T04:44:00;49872.84;;;-149.77;37.39
60055;BME280;45930;53.514;55.904;2023-07-30T04:45:01;49825.28;;;-149.77;37.52
60055;BME280;45930;53.514;55.904;2023-07-30T04:46:03;49860.94;;;-149.77;37.30
60055;BME280;45930;53.514;55.904;2023-07-30T04:47:04;49851.03;;;-149.77;37.63
60055;BME280;45930;53.514;55.904;2023-07-30T04:48:05;49870.84;;;-149.77;37.21
60055;BME280;45930;53.514;55.904;2023-07-30T04:49:06;49855.00;;;-149.77;37.23
60055;BME280;45930;53.514;55.904;2023-07-30T04:50:07;49862.94;;;-149.77;37.24
60055;BME280;45930;53.514;55.904;2023-07-30T04:51:07;49876.78;;;-149.77;37.51
60055;BME280;45930;53.514;55.904;2023-07-30T04:52:08;49864.91;;;-149.77;37.53
60055;BME280;45930;53.514;55.904;2023-07-30T04:53:09;49853.03;;;-149.77;37.46
60055;BME280;45930;53.514;55.904;2023-07-30T04:54:10;49849.06;;;-149.77;37.86
60055;BME280;45930;53.514;55.904;2023-07-30T04:55:11;49862.94;;;-149.77;37.88
60055;BME280;45930;53.514;55.904;2023-07-30T04:56:12;49870.84;;;-149.77;37.57
60055;BME280;45930;53.514;55.904;2023-07-30T04:57:12;49827.25;;;-149.77;37.34
60055;BME280;45930;53.514;55.904;2023-07-30T04:58:13;49860.94;;;-149.77;37.62
60055;BME280;45930;53.514;55.904;2023-07-30T04:59:14;49841.13;;;-149.77;37.45
60055;BME280;45930;53.514;55.904;2023-07-30T05:00:15;49835.19;;;-149.77;37.58
60055;BME280;45930;53.514;55.904;2023-07-30T05:01:16;49860.94;;;-149.77;37.31
60055;BME280;45930;53.514;55.904;2023-07-30T05:02:17;49856.97;;;-149.77;37.56
60055;BME280;45930;53.514;55.904;2023-07-30T05:03:17;49880.75;;;-149.77;37.68
60055;BME280;45930;53.514;55.904;2023-07-30T05:04:18;49880.75;;;-149.77;37.74
60055;BME280;45930;53.514;55.904;2023-07-30T05:05:19;49866.88;;;-149.77;37.68
60055;BME280;45930;53.514;55.904;2023-07-30T05:06:20;49870.84;;;-149.77;38.19
60055;BME280;45930;53.514;55.904;2023-07-30T05:07:21;49864.91;;;-149.77;37.74
60055;BME280;45930;53.514;55.904;2023-07-30T05:08:21;49882.75;;;-149.77;37.58
60055;BME280;45930;53.514;55.904;2023-07-30T05:09:22;49853.03;;;-149.77;37.28
60055;BME280;45930;53.514;55.904;2023-07-30T05:10:23;49898.59;;;-149.77;37.69
60055;BME280;45930;53.514;55.904;2023-07-30T05:11:24;49890.66;;;-149.77;37.50
60055;BME280;45930;53.514;55.904;2023-07-30T05:12:25;49876.78;;;-149.77;37.55